Time;durP1;ratioP1;P1;durP2;ratioP2;P2;SDS_P1;SDS_P2;PMS_P1;PMS_P2;Temp;Humidity;BMP_temperature;BMP_pressure;BME280_temperature;BME280_humidity;BME280_pressure;Samples;Min_cycle;Max_cycle;Signal;HPM_P1;HPM_P2
2024/03/03 00:00:06;;;;;;;24.65;20.08;;;;;;;7.63;84.27;93124.53;521500;28;786;-70
2024/03/03 00:00:24;;;;;;;23.35;19.25;;;;;;;7.64;84.32;93125.97;521510;28;1001;-70
2024/03/03 00:00:40;;;;;;;22.38;18.73;;;;;;;7.65;84.56;93127.47;520335;28;1290;-70
2024/03/03 00:00:55;;;;;;;20.35;17.83;;;;;;;7.64;84.22;93125.97;521005;28;1108;-71
2024/03/03 00:01:11;;;;;;;19.27;17.13;;;;;;;7.65;84.40;93134.97;520909;28;1699;-71
2024/03/03 00:01:26;;;;;;;17.40;15.25;;;;;;;7.51;84.65;93109.56;520464;28;829;-71
2024/03/03 00:01:42;;;;;;;16.00;14.20;;;;;;;7.53;84.51;93103.56;521111;28;786;-70
2024/03/03 00:01:57;;;;;;;15.82;13.80;;;;;;;7.69;84.53;93126.41;519557;28;1056;-70
2024/03/03 00:02:13;;;;;;;14.83;13.03;;;;;;;7.69;84.53;93121.63;519708;28;1151;-71
2024/03/03 00:02:28;;;;;;;14.45;12.80;;;;;;;7.71;84.73;93134.84;519603;28;810;-70
2024/03/03 00:02:44;;;;;;;15.40;12.53;;;;;;;7.72;84.56;93130.81;519522;28;832;-70
2024/03/03 00:02:59;;;;;;;15.68;11.95;;;;;;;7.73;84.64;93130.28;519510;28;869;-70
2024/03/03 00:03:15;;;;;;;15.83;12.27;;;;;;;7.74;84.47;93131.00;519451;28;861;-70
2024/03/03 00:03:30;;;;;;;17.13;13.65;;;;;;;7.74;84.46;93129.00;519487;28;952;-70
2024/03/03 00:03:46;;;;;;;16.67;13.10;;;;;;;7.74;84.54;93126.25;519586;28;1068;-70
2024/03/03 00:04:01;;;;;;;14.23;11.93;;;;;;;7.75;84.34;93129.75;519783;28;1846;-70
2024/03/03 00:04:17;;;;;;;15.10;12.67;;;;;;;7.75;84.43;93127.00;521490;28;1075;-70
2024/03/03 00:04:32;;;;;;;18.35;13.32;;;;;;;7.76;84.33;93133.94;519650;28;790;-70
2024/03/03 00:04:48;;;;;;;17.87;13.20;;;;;;;7.72;84.13;93125.31;519566;28;857;-70
2024/03/03 00:05:03;;;;;;;17.58;13.10;;;;;;;7.77;84.37;93133.44;517343;28;889;-70
2024/03/03 00:05:19;;;;;;;17.97;13.40;;;;;;;7.78;83.90;93136.91;517353;28;893;-70
2024/03/03 00:05:35;;;;;;;14.80;12.13;;;;;;;7.79;83.79;93135.63;518575;28;1065;-70
2024/03/03 00:05:51;;;;;;;12.93;10.93;;;;;;;7.79;83.83;93133.63;519372;28;830;-70
2024/03/03 00:06:06;;;;;;;11.90;9.80;;;;;;;7.78;83.80;93134.16;517863;28;865;-70
2024/03/03 00:06:22;;;;;;;11.43;9.30;;;;;;;7.76;83.84;93131.94;517409;28;801;-70
2024/03/03 00:06:37;;;;;;;13.23;9.32;;;;;;;7.76;84.03;93131.19;517636;28;1728;-70
2024/03/03 00:06:53;;;;;;;14.17;9.77;;;;;;;7.76;83.82;93131.19;518587;28;790;-71
2024/03/03 00:07:08;;;;;;;14.00;10.23;;;;;;;7.76;84.17;93131.19;519977;28;1130;-70
2024/03/03 00:07:24;;;;;;;13.13;9.93;;;;;;;7.77;83.94;93135.44;521378;28;880;-72
2024/03/03 00:07:39;;;;;;;12.13;9.77;;;;;;;7.78;84.05;93136.91;520246;28;809;-71
2024/03/03 00:07:55;;;;;;;12.33;9.97;;;;;;;7.76;84.09;93131.94;519364;28;790;-71
2024/03/03 00:08:10;;;;;;;14.25;10.93;;;;;;;7.78;84.28;93136.91;519457;28;809;-71
2024/03/03 00:08:25;;;;;;;15.20;12.03;;;;;;;7.78;84.06;93142.41;519420;28;789;-72
2024/03/03 00:08:41;;;;;;;14.67;12.40;;;;;;;7.78;84.20;93137.63;519284;28;1977;-71
2024/03/03 00:08:56;;;;;;;13.75;11.43;;;;;;;7.78;84.05;93131.41;521455;28;1145;-71
2024/03/03 00:09:12;;;;;;;14.03;11.07;;;;;;;7.78;83.85;93134.16;520825;28;1612;-72
2024/03/03 00:09:27;;;;;;;14.25;11.20;;;;;;;7.78;84.03;93131.41;520269;28;861;-72
2024/03/03 00:09:45;;;;;;;12.37;10.30;;;;;;;7.78;84.00;93132.16;520784;28;952;-71
2024/03/03 00:10:00;;;;;;;13.05;9.98;;;;;;;7.79;84.03;93132.88;519323;28;892;-71
2024/03/03 00:10:16;;;;;;;13.87;10.37;;;;;;;7.56;84.24;93096.97;520027;28;795;-71
2024/03/03 00:10:31;;;;;;;13.50;10.70;;;;;;;7.77;83.99;93132.69;521359;28;1203;-72
2024/03/03 00:10:47;;;;;;;14.47;11.77;;;;;;;7.74;84.05;93136.50;521462;28;806;-71
2024/03/03 00:11:03;;;;;;;15.98;13.20;;;;;;;7.67;84.25;93129.69;521381;28;1077;-70
2024/03/03 00:11:18;;;;;;;18.85;13.60;;;;;;;7.71;84.20;93137.59;521488;28;844;-70
2024/03/03 00:11:34;;;;;;;22.00;12.87;;;;;;;7.69;84.25;93129.16;521486;27;789;-70
2024/03/03 00:11:49;;;;;;;21.17;13.02;;;;;;;7.65;84.16;93135.72;521434;28;923;-70
2024/03/03 00:12:05;;;;;;;17.07;13.47;;;;;;;7.63;84.35;93130.03;521257;28;970;-70
2024/03/03 00:12:20;;;;;;;17.27;14.30;;;;;;;7.63;84.35;93141.00;521389;28;813;-70
2024/03/03 00:12:36;;;;;;;17.43;14.57;;;;;;;7.63;84.49;93134.78;521395;28;920;-70
2024/03/03 00:12:51;;;;;;;16.83;13.88;;;;;;;7.59;84.52;93129.63;520907;28;1696;-70
2024/03/03 00:13:07;;;;;;;18.57;14.47;;;;;;;7.56;84.69;93141.69;520231;28;770;-70
2024/03/03 00:13:24;;;;;;;19.40;15.43;;;;;;;7.54;84.52;93133.25;520991;28;924;-70
2024/03/03 00:13:40;;;;;;;27.60;19.88;;;;;;;7.52;84.74;93135.78;520657;28;1018;-70
2024/03/03 00:13:56;;;;;;;34.95;24.58;;;;;;;7.50;84.67;93130.09;520867;28;1010;-70
2024/03/03 00:14:12;;;;;;;50.15;31.50;;;;;;;7.49;84.93;93138.88;519224;28;838;-70
2024/03/03 00:14:27;;;;;;;62.95;38.20;;;;;;;7.48;84.92;93134.66;519401;28;841;-70
2024/03/03 00:14:44;;;;;;;66.03;39.23;;;;;;;7.48;85.05;93137.38;519257;28;901;-70
2024/03/03 00:14:59;;;;;;;68.38;40.75;;;;;;;7.46;85.00;93137.94;519308;28;917;-70
2024/03/03 00:15:15;;;;;;;67.53;41.50;;;;;;;7.43;85.01;93133.50;520212;28;1088;-70
2024/03/03 00:15:30;;;;;;;66.63;40.85;;;;;;;7.45;85.18;93135.72;521066;28;1679;-70
2024/03/03 00:15:46;;;;;;;67.87;42.63;;;;;;;7.44;85.17;93134.25;520043;28;896;-71
2024/03/03 00:16:04;;;;;;;63.88;40.80;;;;;;;7.40;85.17;93145.56;521245;28;798;-71
2024/03/03 00:16:19;;;;;;;61.80;38.03;;;;;;;7.39;85.35;93133.09;519377;28;1191;-70
2024/03/03 00:16:40;;;;;;;56.20;33.33;;;;;;;7.38;85.41;93131.66;519557;28;779;-70
2024/03/03 00:16:56;;;;;;;51.75;30.52;;;;;;;7.34;85.56;93133.97;521035;28;955;-70
2024/03/03 00:17:13;;;;;;;48.42;30.25;;;;;;;7.33;85.36;93134.50;521412;28;929;-72
2024/03/03 00:17:28;;;;;;;38.35;25.98;;;;;;;7.33;85.35;93127.00;521651;28;884;-72
2024/03/03 00:17:43;;;;;;;37.15;25.10;;;;;;;7.30;85.58;93136.31;520393;28;825;-71
2024/03/03 00:17:59;;;;;;;36.50;23.57;;;;;;;7.29;85.68;93128.63;519396;28;862;-70
2024/03/03 00:18:14;;;;;;;27.33;17.23;;;;;;;7.27;85.87;93134.66;519450;28;1700;-70
2024/03/03 00:18:30;;;;;;;22.30;14.80;;;;;;;7.25;85.66;93134.44;519625;28;902;-70
2024/03/03 00:18:45;;;;;;;20.13;14.60;;;;;;;7.25;85.74;93137.19;519326;28;783;-70
2024/03/03 00:19:01;;;;;;;21.38;14.40;;;;;;;7.25;85.95;93128.97;519416;28;841;-70
2024/03/03 00:19:17;;;;;;;19.80;13.15;;;;;;;7.23;85.91;93128.75;519958;28;810;-70
2024/03/03 00:19:32;;;;;;;21.37;13.23;;;;;;;7.21;85.95;93131.28;521385;28;762;-71
2024/03/03 00:19:48;;;;;;;30.83;13.63;;;;;;;7.19;86.21;93125.59;521289;28;882;-70
2024/03/03 00:20:04;;;;;;;23.93;12.33;;;;;;;7.19;86.22;93138.59;521244;28;1060;-71
2024/03/03 00:20:20;;;;;;;15.90;11.52;;;;;;;7.16;86.29;93132.16;520820;28;853;-70
2024/03/03 00:20:35;;;;;;;19.83;14.20;;;;;;;7.17;86.24;93127.41;519322;28;901;-70
2024/03/03 00:20:51;;;;;;;21.95;15.45;;;;;;;7.18;86.45;93135.09;519362;28;1731;-71
2024/03/03 00:21:15;;;;;;;21.40;14.83;;;;;;;7.18;86.35;93126.13;519988;28;794;-70
2024/03/03 00:21:31;;;;;;;27.92;17.73;;;;;;;7.17;86.44;93128.13;519902;28;949;-70
2024/03/03 00:21:46;;;;;;;26.87;17.43;;;;;;;7.18;86.47;93128.88;520141;28;1722;-70
2024/03/03 00:22:02;;;;;;;24.52;16.52;;;;;;;7.18;86.40;93131.63;520142;28;818;-70
2024/03/03 00:22:17;;;;;;;24.03;16.60;;;;;;;7.18;86.46;93135.09;519564;28;798;-70
2024/03/03 00:22:32;;;;;;;25.73;17.08;;;;;;;7.16;86.63;93134.91;519485;28;900;-70
2024/03/03 00:22:48;;;;;;;27.47;18.23;;;;;;;7.15;86.45;93129.94;519605;28;821;-70
2024/03/03 00:23:04;;;;;;;26.10;18.15;;;;;;;7.14;86.53;93134.72;519465;28;973;-70
2024/03/03 00:23:19;;;;;;;25.47;17.77;;;;;;;7.13;86.65;93130.47;520417;28;1000;-70
2024/03/03 00:23:34;;;;;;;25.73;17.20;;;;;;;7.14;86.65;93128.47;520966;28;1703;-70
2024/03/03 00:23:53;;;;;;;25.00;16.70;;;;;;;7.15;86.78;93129.94;520385;28;773;-70
2024/03/03 00:24:08;;;;;;;28.33;17.80;;;;;;;7.14;86.70;93133.97;520474;28;1095;-70
2024/03/03 00:24:24;;;;;;;28.60;17.92;;;;;;;7.13;86.63;93129.72;519651;28;818;-70
2024/03/03 00:24:40;;;;;;;28.37;18.77;;;;;;;7.11;86.78;93130.28;520390;28;1118;-70
2024/03/03 00:24:55;;;;;;;30.02;18.67;;;;;;;7.11;86.96;93126.78;521391;28;1036;-70
2024/03/03 00:25:10;;;;;;;31.63;18.50;;;;;;;7.09;86.88;93127.31;521537;28;998;-70
2024/03/03 00:25:26;;;;;;;30.30;18.25;;;;;;;7.08;86.94;93123.09;521527;28;806;-70
2024/03/03 00:25:41;;;;;;;29.23;18.87;;;;;;;7.06;86.97;93130.41;520852;28;810;-70
2024/03/03 00:25:57;;;;;;;29.58;18.23;;;;;;;7.06;87.08;93128.38;519486;28;798;-70
2024/03/03 00:26:12;;;;;;;27.07;16.37;;;;;;;7.06;87.12;93128.38;519488;28;1132;-70
2024/03/03 00:26:28;;;;;;;23.23;15.30;;;;;;;7.05;87.23;93126.91;519782;28;1022;-70
2024/03/03 00:26:44;;;;;;;18.20;13.18;;;;;;;7.04;87.07;93130.94;521383;28;913;-71
2024/03/03 00:26:59;;;;;;;15.17;10.57;;;;;;;7.05;87.09;93123.44;521611;28;809;-70
2024/03/03 00:27:14;;;;;;;14.37;9.50;;;;;;;7.04;87.37;93130.22;521514;28;838;-70
2024/03/03 00:27:30;;;;;;;16.08;10.43;;;;;;;7.02;87.35;93127.97;521615;28;833;-70
2024/03/03 00:27:45;;;;;;;17.97;12.13;;;;;;;7.03;87.13;93128.72;521589;28;802;-70
2024/03/03 00:28:01;;;;;;;20.85;14.35;;;;;;;7.01;87.34;93128.53;520106;28;1782;-70
2024/03/03 00:28:16;;;;;;;20.77;13.97;;;;;;;6.98;87.47;93124.81;519507;28;1038;-70
2024/03/03 00:28:32;;;;;;;15.88;11.00;;;;;;;6.97;87.54;93117.88;519360;28;1983;-70
2024/03/03 00:28:47;;;;;;;10.67;8.20;;;;;;;6.96;87.53;93132.13;519496;28;909;-70
2024/03/03 00:29:04;;;;;;;9.80;7.53;;;;;;;6.95;87.57;93125.91;520959;28;865;-70
2024/03/03 00:29:20;;;;;;;12.10;7.85;;;;;;;6.95;87.58;93128.66;521565;28;882;-70
2024/03/03 00:29:36;;;;;;;15.38;8.80;;;;;;;6.93;87.75;93122.94;521577;28;845;-70
2024/03/03 00:29:51;;;;;;;14.90;10.37;;;;;;;6.94;87.89;93116.19;519993;28;1012;-70
2024/03/03 00:30:07;;;;;;;17.40;12.80;;;;;;;6.91;87.80;93122.03;519541;28;856;-71
2024/03/03 00:30:22;;;;;;;19.80;13.80;;;;;;;6.89;87.89;93128.03;519522;28;932;-70
2024/03/03 00:30:38;;;;;;;17.58;11.73;;;;;;;6.89;87.98;93122.53;519519;28;802;-71
2024/03/03 00:30:54;;;;;;;14.35;10.18;;;;;;;6.91;88.05;93122.03;519818;28;1692;-70
2024/03/03 00:31:09;;;;;;;16.27;11.67;;;;;;;6.89;87.96;93119.78;521086;28;794;-70
2024/03/03 00:31:25;;;;;;;17.93;12.07;;;;;;;6.86;88.13;93120.88;520816;28;1025;-71
2024/03/03 00:31:43;;;;;;;17.77;11.50;;;;;;;6.85;87.97;93117.38;521562;28;825;-71
2024/03/03 00:31:58;;;;;;;15.85;10.90;;;;;;;6.87;88.27;93116.84;519875;28;944;-71
2024/03/03 00:32:13;;;;;;;15.50;11.27;;;;;;;6.88;88.18;93121.06;519431;28;968;-71
2024/03/03 00:32:29;;;;;;;16.80;12.43;;;;;;;6.87;88.15;93120.31;519564;28;842;-71
2024/03/03 00:32:44;;;;;;;18.13;12.77;;;;;;;6.87;88.09;93122.31;519514;28;979;-71
2024/03/03 00:33:00;;;;;;;15.32;10.50;;;;;;;6.90;88.19;93118.53;520153;28;923;-71
2024/03/03 00:33:17;;;;;;;10.97;8.13;;;;;;;6.91;88.20;93122.75;521612;28;798;-70
2024/03/03 00:33:33;;;;;;;15.35;10.77;;;;;;;6.92;88.30;93112.50;521465;28;849;-71
2024/03/03 00:33:48;;;;;;;17.55;11.32;;;;;;;6.92;88.22;93112.50;521316;28;1821;-71
2024/03/03 00:34:04;;;;;;;16.50;10.15;;;;;;;6.91;88.21;93113.78;520077;28;786;-71
2024/03/03 00:34:19;;;;;;;16.50;9.20;;;;;;;6.92;88.26;93118.00;521498;28;893;-71
2024/03/03 00:34:35;;;;;;;18.10;8.95;;;;;;;6.91;88.00;93111.75;519955;28;1175;-71
2024/03/03 00:34:51;;;;;;;14.63;8.00;;;;;;;6.89;88.47;93119.78;521604;28;814;-71
2024/03/03 00:35:09;;;;;;;11.13;7.13;;;;;;;6.89;88.25;93119.78;519497;28;881;-71
2024/03/03 00:35:24;;;;;;;9.30;6.53;;;;;;;6.87;88.20;93117.59;519566;28;903;-71
2024/03/03 00:35:40;;;;;;;6.85;5.50;;;;;;;6.89;88.36;93114.31;519494;28;849;-71
2024/03/03 00:35:56;;;;;;;6.37;4.97;;;;;;;6.88;88.44;93116.31;520492;28;1109;-71
2024/03/03 00:36:11;;;;;;;7.03;5.10;;;;;;;6.90;88.28;93115.78;519367;28;817;-71
2024/03/03 00:36:27;;;;;;;7.03;5.17;;;;;;;6.91;88.44;93106.28;519305;28;818;-71
2024/03/03 00:36:42;;;;;;;8.43;5.05;;;;;;;6.93;88.59;93108.50;519304;28;798;-71
2024/03/03 00:36:57;;;;;;;7.77;4.93;;;;;;;6.93;88.36;93108.50;519402;28;771;-71
2024/03/03 00:37:18;;;;;;;6.93;5.43;;;;;;;6.94;88.39;93101.72;519369;28;889;-71
2024/03/03 00:37:33;;;;;;;6.80;5.07;;;;;;;6.96;88.17;93108.16;519157;28;1116;-70
2024/03/03 00:37:49;;;;;;;6.40;4.83;;;;;;;6.97;88.32;93106.16;519381;28;870;-70
2024/03/03 00:38:04;;;;;;;5.13;4.63;;;;;;;6.97;88.14;93106.16;519390;28;856;-70
2024/03/03 00:38:19;;;;;;;5.10;4.60;;;;;;;6.98;88.06;93113.09;519944;28;1707;-70
2024/03/03 00:38:36;;;;;;;5.67;4.97;;;;;;;7.01;88.15;93110.06;520347;28;875;-70
2024/03/03 00:38:52;;;;;;;5.78;5.18;;;;;;;7.03;88.10;93104.75;520488;28;901;-70
2024/03/03 00:39:07;;;;;;;5.93;5.10;;;;;;;7.06;87.91;93102.97;520258;28;1056;-70
2024/03/03 00:39:23;;;;;;;5.13;4.20;;;;;;;7.08;87.77;93109.38;520631;28;773;-71
2024/03/03 00:39:38;;;;;;;4.63;3.88;;;;;;;7.08;87.96;93098.38;519401;28;929;-70
2024/03/03 00:39:54;;;;;;;5.13;4.27;;;;;;;7.05;87.79;93099.47;519511;28;823;-70
2024/03/03 00:40:10;;;;;;;5.70;4.20;;;;;;;7.11;87.62;93107.56;519533;28;794;-71
2024/03/03 00:40:25;;;;;;;5.10;3.65;;;;;;;7.13;87.85;93102.28;519436;28;925;-70
2024/03/03 00:40:41;;;;;;;4.07;3.67;;;;;;;7.14;87.75;93101.75;519290;28;1021;-70
2024/03/03 00:40:56;;;;;;;4.90;4.10;;;;;;;7.17;87.59;93106.16;520965;28;1680;-71
2024/03/03 00:41:12;;;;;;;5.50;4.30;;;;;;;7.18;87.51;93102.16;520321;28;869;-71
2024/03/03 00:41:27;;;;;;;4.70;3.92;;;;;;;7.21;87.43;93105.84;521108;28;876;-70
2024/03/03 00:41:43;;;;;;;4.00;3.60;;;;;;;7.23;87.39;93103.31;519479;28;861;-70
2024/03/03 00:41:58;;;;;;;4.65;3.30;;;;;;;7.25;87.20;93104.25;519778;28;766;-71
2024/03/03 00:42:14;;;;;;;4.27;3.10;;;;;;;7.26;87.20;93104.97;521421;28;938;-71
2024/03/03 00:42:29;;;;;;;3.22;2.92;;;;;;;7.28;87.20;93105.91;521396;28;1009;-70
2024/03/03 00:42:45;;;;;;;3.23;2.80;;;;;;;7.29;87.01;93110.13;521596;28;869;-71
2024/03/03 00:43:00;;;;;;;3.55;2.90;;;;;;;7.31;87.10;93102.09;521565;28;763;-70
2024/03/03 00:43:15;;;;;;;4.50;2.80;;;;;;;7.33;86.97;93102.31;519472;28;793;-71
2024/03/03 00:43:32;;;;;;;4.37;2.70;;;;;;;7.35;86.87;93099.75;519509;28;810;-71
2024/03/03 00:43:47;;;;;;;3.00;2.70;;;;;;;7.36;86.90;93095.00;519685;28;885;-71
2024/03/03 00:44:03;;;;;;;3.20;2.70;;;;;;;7.39;86.82;93102.16;519800;28;1684;-71
2024/03/03 00:44:18;;;;;;;3.05;2.55;;;;;;;7.40;86.55;93093.41;519541;28;1014;-71
2024/03/03 00:44:34;;;;;;;2.63;2.40;;;;;;;7.43;86.69;93105.28;521473;28;877;-70
2024/03/03 00:44:49;;;;;;;2.50;2.30;;;;;;;7.44;86.29;93101.28;521549;28;826;-70
2024/03/03 00:45:06;;;;;;;2.90;2.30;;;;;;;7.46;86.26;93098.75;519723;28;786;-71
2024/03/03 00:45:21;;;;;;;3.00;2.50;;;;;;;7.47;86.30;93100.22;519492;28;992;-72
2024/03/03 00:45:37;;;;;;;2.60;2.30;;;;;;;7.48;85.91;93105.19;519500;28;1076;-73
2024/03/03 00:45:52;;;;;;;2.40;2.20;;;;;;;7.50;86.13;93099.13;519417;28;900;-72
2024/03/03 00:46:07;;;;;;;2.40;2.10;;;;;;;7.51;85.85;93101.34;519412;28;865;-72
2024/03/03 00:46:23;;;;;;;2.47;2.23;;;;;;;7.53;85.80;93103.56;519561;28;821;-72
2024/03/03 00:46:39;;;;;;;2.92;2.38;;;;;;;7.53;85.69;93096.06;519558;28;826;-71
2024/03/03 00:46:54;;;;;;;3.00;2.30;;;;;;;7.54;85.63;93103.03;519510;28;901;-72
2024/03/03 00:47:09;;;;;;;3.20;2.20;;;;;;;7.53;85.46;93098.81;519410;28;1125;-72
2024/03/03 00:47:25;;;;;;;2.97;2.13;;;;;;;7.50;85.31;93099.13;521368;28;1234;-71
2024/03/03 00:47:42;;;;;;;2.50;2.30;;;;;;;7.50;85.31;93099.13;521563;28;833;-71
2024/03/03 00:47:57;;;;;;;2.53;2.25;;;;;;;7.51;85.43;93098.59;521519;28;803;-71
2024/03/03 00:48:13;;;;;;;2.73;2.27;;;;;;;7.52;85.35;93096.59;521557;28;802;-72
2024/03/03 00:48:28;;;;;;;2.63;2.20;;;;;;;7.53;85.16;93098.06;519966;28;1723;-71
2024/03/03 00:48:44;;;;;;;2.25;2.00;;;;;;;7.54;85.15;93102.28;521275;28;814;-72
2024/03/03 00:48:59;;;;;;;2.07;1.83;;;;;;;7.54;84.90;93097.53;519525;28;1683;-71
2024/03/03 00:49:15;;;;;;;2.75;2.10;;;;;;;7.55;84.76;93092.78;519479;28;853;-71
2024/03/03 00:49:30;;;;;;;3.17;2.03;;;;;;;7.51;84.62;93106.84;519465;28;822;-72
2024/03/03 00:49:46;;;;;;;2.30;1.70;;;;;;;7.48;84.70;93096.94;519518;28;783;-71
2024/03/03 00:50:01;;;;;;;2.10;1.90;;;;;;;7.47;84.80;93094.72;519516;28;840;-72
2024/03/03 00:50:17;;;;;;;2.22;2.03;;;;;;;7.46;84.64;93099.47;519412;28;897;-72
2024/03/03 00:50:32;;;;;;;2.10;1.90;;;;;;;7.42;84.52;93093.59;519654;28;905;-71
2024/03/03 00:50:47;;;;;;;3.30;2.30;;;;;;;7.34;84.72;93087.28;519413;28;845;-71
2024/03/03 00:51:03;;;;;;;3.47;2.50;;;;;;;7.39;84.67;93093.91;519864;28;1692;-71
2024/03/03 00:51:18;;;;;;;2.47;2.28;;;;;;;7.37;84.68;93091.72;520825;28;837;-71
2024/03/03 00:51:36;;;;;;;2.60;2.40;;;;;;;7.36;84.57;93101.22;520309;28;849;-71
2024/03/03 00:51:52;;;;;;;2.75;2.55;;;;;;;7.37;84.62;93099.22;519482;28;932;-72
2024/03/03 00:52:07;;;;;;;3.00;2.60;;;;;;;7.36;84.84;93092.97;520739;28;962;-72
2024/03/03 00:52:23;;;;;;;2.80;2.40;;;;;;;7.34;84.68;93097.56;521483;28;774;-72
2024/03/03 00:52:38;;;;;;;2.72;2.47;;;;;;;7.35;84.59;93093.50;521556;28;854;-72
2024/03/03 00:52:57;;;;;;;3.13;2.60;;;;;;;7.36;84.63;93095.72;521497;28;774;-72
2024/03/03 00:53:12;;;;;;;2.92;2.63;;;;;;;7.37;84.88;93090.97;520053;28;838;-71
2024/03/03 00:53:28;;;;;;;2.90;2.60;;;;;;;7.39;84.88;93096.66;519528;28;861;-72
2024/03/03 00:53:43;;;;;;;2.93;2.63;;;;;;;7.41;84.67;93097.59;520054;28;1052;-72
2024/03/03 00:53:58;;;;;;;2.80;2.60;;;;;;;7.42;84.86;93095.59;521562;28;904;-72
2024/03/03 00:54:14;;;;;;;2.77;2.53;;;;;;;7.44;84.71;93095.78;521473;28;801;-71
2024/03/03 00:54:29;;;;;;;2.60;2.40;;;;;;;7.44;84.56;93090.31;521519;28;846;-71
2024/03/03 00:54:45;;;;;;;2.85;2.58;;;;;;;7.45;84.60;93091.78;521520;28;746;-72
2024/03/03 00:55:00;;;;;;;3.43;2.87;;;;;;;7.44;84.66;93093.78;520851;28;1731;-71
2024/03/03 00:55:15;;;;;;;3.80;2.80;;;;;;;7.46;84.50;93090.50;520355;28;992;-72
2024/03/03 00:55:31;;;;;;;3.47;2.87;;;;;;;7.44;84.71;93085.56;520443;28;943;-72
2024/03/03 00:55:47;;;;;;;2.95;2.65;;;;;;;7.45;84.79;93087.00;521408;28;821;-71
2024/03/03 00:56:04;;;;;;;2.70;2.37;;;;;;;7.46;84.58;93094.00;520506;28;805;-72
2024/03/03 00:56:20;;;;;;;3.00;2.30;;;;;;;7.48;84.67;93096.94;519537;28;1070;-72
2024/03/03 00:56:36;;;;;;;3.60;2.67;;;;;;;7.48;84.34;93085.94;519570;28;832;-71
2024/03/03 00:56:51;;;;;;;3.40;2.77;;;;;;;7.49;84.43;93087.41;519520;28;955;-72
2024/03/03 00:57:07;;;;;;;2.85;2.65;;;;;;;7.50;84.43;93096.38;520291;28;1192;-72
2024/03/03 00:57:22;;;;;;;3.10;2.80;;;;;;;7.46;84.58;93096.72;519386;28;917;-72
2024/03/03 00:57:37;;;;;;;3.90;2.88;;;;;;;7.46;84.49;93096.72;519563;28;1376;-72
2024/03/03 00:57:53;;;;;;;3.17;2.60;;;;;;;7.47;84.62;93094.72;521052;28;885;-72
2024/03/03 00:58:10;;;;;;;2.83;2.40;;;;;;;7.48;84.89;93091.44;521358;28;1104;-72
2024/03/03 00:58:25;;;;;;;4.97;2.60;;;;;;;7.49;84.71;93090.16;520647;28;1843;-72
2024/03/03 00:58:41;;;;;;;4.90;2.70;;;;;;;7.50;84.80;93088.88;520863;28;963;-72
2024/03/03 00:58:57;;;;;;;3.55;2.60;;;;;;;7.51;84.87;93092.38;520332;28;861;-72
2024/03/03 00:59:12;;;;;;;3.03;2.43;;;;;;;7.53;84.87;93095.31;520296;28;1128;-71
2024/03/03 00:59:27;;;;;;;2.67;2.33;;;;;;;7.55;84.63;93095.53;520482;28;750;-72
2024/03/03 00:59:43;;;;;;;2.83;2.43;;;;;;;7.54;85.14;93089.28;519452;28;781;-72
2024/03/03 00:59:59;;;;;;;2.90;2.53;;;;;;;7.57;85.06;93092.97;519480;28;857;-71
2024/03/03 01:00:14;;;;;;;3.15;2.70;;;;;;;7.58;84.92;93091.69;519443;28;938;-72
2024/03/03 01:00:30;;;;;;;3.03;2.70;;;;;;;7.59;84.96;93090.41;519426;28;818;-71
2024/03/03 01:00:45;;;;;;;2.77;2.47;;;;;;;7.61;84.96;93094.09;519823;28;1140;-71
2024/03/03 01:01:01;;;;;;;2.55;2.30;;;;;;;7.62;85.13;93092.81;520853;28;1671;-71
2024/03/03 01:01:18;;;;;;;2.63;2.42;;;;;;;7.63;84.96;93093.56;520310;28;829;-71
2024/03/03 01:01:33;;;;;;;3.00;2.60;;;;;;;7.64;84.75;93090.28;518610;28;888;-71
2024/03/03 01:01:49;;;;;;;3.63;2.70;;;;;;;7.65;84.96;93089.00;517241;28;958;-71
2024/03/03 01:02:04;;;;;;;2.87;2.50;;;;;;;7.67;84.82;93087.75;517906;28;833;-71
2024/03/03 01:02:20;;;;;;;4.40;2.83;;;;;;;7.69;84.85;93082.44;519213;28;1121;-72
2024/03/03 01:02:35;;;;;;;5.13;2.93;;;;;;;7.70;84.96;93086.66;519312;28;782;-71
2024/03/03 01:02:51;;;;;;;5.30;3.13;;;;;;;7.68;84.61;93081.69;519271;28;939;-71
2024/03/03 01:03:06;;;;;;;5.43;3.70;;;;;;;7.69;84.82;93083.16;519011;28;816;-71
2024/03/03 01:03:22;;;;;;;4.60;3.70;;;;;;;7.69;85.02;93091.41;517651;28;866;-71
2024/03/03 01:03:38;;;;;;;4.85;4.00;;;;;;;7.70;84.81;93084.66;519504;28;849;-71
2024/03/03 01:03:54;;;;;;;6.03;4.63;;;;;;;7.70;84.69;93081.91;519417;28;979;-71
2024/03/03 01:04:09;;;;;;;5.85;4.57;;;;;;;7.70;84.53;93081.16;519363;28;835;-71
2024/03/03 01:04:24;;;;;;;5.37;4.70;;;;;;;7.72;84.64;93087.59;519468;28;814;-71
2024/03/03 01:04:40;;;;;;;5.13;4.63;;;;;;;7.74;84.36;93084.28;519472;28;877;-71
2024/03/03 01:04:55;;;;;;;4.77;4.27;;;;;;;7.73;84.39;93071.84;519378;28;1675;-71
2024/03/03 01:05:11;;;;;;;5.32;4.55;;;;;;;7.74;84.25;93079.53;520198;28;857;-71
2024/03/03 01:05:26;;;;;;;10.77;7.60;;;;;;;7.74;84.30;93085.03;521189;28;1107;-71
2024/03/03 01:05:42;;;;;;;11.43;7.97;;;;;;;7.75;83.90;93077.53;520480;28;1080;-71
2024/03/03 01:05:58;;;;;;;7.47;5.67;;;;;;;7.74;83.82;93076.03;521329;28;836;-71
2024/03/03 01:06:13;;;;;;;10.60;7.57;;;;;;;7.72;83.75;93078.59;519449;28;763;-71
2024/03/03 01:06:28;;;;;;;13.33;9.53;;;;;;;7.71;83.96;93074.41;519616;28;786;-71
2024/03/03 01:06:44;;;;;;;10.68;8.50;;;;;;;7.69;83.75;93074.19;519436;28;849;-71
2024/03/03 01:06:59;;;;;;;9.83;7.57;;;;;;;7.56;83.84;93066.75;519508;28;904;-71
2024/03/03 01:07:15;;;;;;;8.95;6.40;;;;;;;7.57;84.04;93079.97;519693;28;969;-71
2024/03/03 01:07:30;;;;;;;7.00;5.10;;;;;;;7.53;83.94;93082.34;521527;28;813;-71
2024/03/03 01:07:46;;;;;;;5.75;4.47;;;;;;;7.53;84.07;93084.34;521547;28;805;-71
2024/03/03 01:08:02;;;;;;;5.90;4.50;;;;;;;7.37;84.34;93058.75;521472;28;757;-71
2024/03/03 01:08:17;;;;;;;5.85;4.82;;;;;;;7.48;84.31;93077.72;521424;28;857;-71
2024/03/03 01:08:33;;;;;;;6.75;5.15;;;;;;;7.49;84.28;93079.16;519709;28;1973;-71
2024/03/03 01:08:48;;;;;;;8.60;6.13;;;;;;;7.50;84.42;93075.16;521470;28;931;-72
2024/03/03 01:09:04;;;;;;;8.70;7.00;;;;;;;7.52;84.48;93077.34;519468;28;1010;-71
2024/03/03 01:09:19;;;;;;;8.93;7.03;;;;;;;7.52;84.30;93074.59;519483;28;814;-71
2024/03/03 01:09:35;;;;;;;8.93;7.22;;;;;;;7.52;84.21;93074.59;519360;28;841;-71
2024/03/03 01:09:50;;;;;;;7.87;6.77;;;;;;;7.52;84.10;93077.34;519508;28;853;-71
2024/03/03 01:10:06;;;;;;;9.67;7.17;;;;;;;7.54;84.07;93078.28;519470;28;826;-71
2024/03/03 01:10:22;;;;;;;10.82;8.65;;;;;;;7.54;84.15;93075.53;519394;28;833;-71
2024/03/03 01:10:37;;;;;;;10.50;8.83;;;;;;;7.56;84.12;93072.25;520769;28;1001;-71
2024/03/03 01:10:53;;;;;;;10.88;8.13;;;;;;;7.57;84.08;93079.25;521357;28;853;-71
2024/03/03 01:11:08;;;;;;;10.93;7.50;;;;;;;7.59;84.11;93071.19;518099;28;1469;-72
2024/03/03 01:11:24;;;;;;;9.77;7.28;;;;;;;7.59;83.95;93069.19;518633;28;778;-72
2024/03/03 01:11:40;;;;;;;8.27;7.13;;;;;;;7.60;83.94;93070.66;517943;28;802;-71
2024/03/03 01:11:56;;;;;;;10.25;8.18;;;;;;;7.60;83.95;93069.94;517256;28;848;-71
2024/03/03 01:12:11;;;;;;;13.48;8.90;;;;;;;7.62;83.74;93070.13;518394;28;978;-72
2024/03/03 01:12:27;;;;;;;12.53;8.20;;;;;;;7.62;83.92;93073.59;519276;28;857;-71
2024/03/03 01:12:42;;;;;;;9.57;7.72;;;;;;;7.63;83.79;93071.59;519276;28;829;-71
2024/03/03 01:12:58;;;;;;;9.50;8.13;;;;;;;7.64;83.53;93073.78;519804;28;862;-72
2024/03/03 01:13:13;;;;;;;11.00;8.85;;;;;;;7.64;83.51;93062.78;520392;28;810;-72
2024/03/03 01:13:29;;;;;;;10.50;8.67;;;;;;;7.64;83.37;93076.53;519572;28;908;-71
2024/03/03 01:13:44;;;;;;;9.73;7.90;;;;;;;7.64;83.43;93068.28;519829;28;865;-72
2024/03/03 01:14:00;;;;;;;10.33;8.20;;;;;;;7.67;83.32;93071.25;521454;28;797;-72
2024/03/03 01:14:16;;;;;;;10.63;8.70;;;;;;;7.68;83.37;93075.47;521479;28;845;-71
2024/03/03 01:14:31;;;;;;;10.15;8.55;;;;;;;7.68;83.28;93069.97;521387;28;818;-71
2024/03/03 01:14:47;;;;;;;10.37;8.83;;;;;;;7.62;83.19;93068.09;521578;28;848;-71
2024/03/03 01:15:02;;;;;;;10.50;8.93;;;;;;;7.69;83.22;93076.94;520796;28;1735;-72
2024/03/03 01:15:18;;;;;;;10.13;8.73;;;;;;;7.69;83.06;93074.19;520526;28;769;-72
2024/03/03 01:15:33;;;;;;;9.95;8.45;;;;;;;7.71;83.04;93077.16;520208;28;1171;-72
2024/03/03 01:15:49;;;;;;;9.80;7.97;;;;;;;7.70;82.88;93075.66;519536;28;837;-72
2024/03/03 01:16:04;;;;;;;10.85;8.43;;;;;;;7.68;82.90;93075.47;519251;28;798;-72
2024/03/03 01:16:20;;;;;;;10.90;8.70;;;;;;;7.65;83.32;93077.28;519538;28;794;-72
2024/03/03 01:16:36;;;;;;;9.45;8.20;;;;;;;7.63;83.27;93080.56;519343;28;806;-71